createdAt,value
2023-03-15T00:01:19.589Z,1.50
2023-03-15T00:03:49.163Z,1.00
2023-03-15T00:06:17.732Z,2.10
2023-03-15T00:08:49.390Z,1.20
2023-03-15T00:11:19.914Z,2.60
2023-03-15T00:13:48.272Z,0.90
2023-03-15T00:16:18.876Z,3.50
2023-03-15T00:18:47.642Z,3.50
2023-03-15T00:21:16.435Z,2.80
2023-03-15T00:23:44.846Z,2.00
2023-03-15T00:26:14.197Z,1.60
2023-03-15T00:28:42.566Z,4.20
2023-03-15T00:31:18.852Z,1.50
2023-03-15T00:33:47.305Z,2.00
2023-03-15T00:36:16.789Z,1.60
2023-03-15T00:38:45.400Z,1.80
2023-03-15T00:41:18.785Z,0.80
2023-03-15T00:43:47.679Z,2.20
2023-03-15T00:46:17.924Z,2.60
2023-03-15T00:48:51.859Z,9.60
2023-03-15T00:51:22.903Z,1.10
2023-03-15T00:53:53.911Z,1.20
2023-03-15T00:56:26.475Z,2.90
2023-03-15T00:58:58.948Z,3.10
2023-03-15T01:01:30.684Z,4.40
2023-03-15T01:03:58.552Z,2.00
2023-03-15T01:06:31.754Z,1.70
2023-03-15T01:09:01.207Z,1.90
2023-03-15T01:11:29.660Z,0.90
2023-03-15T01:14:00.768Z,11.00
2023-03-15T01:16:29.108Z,1.00
2023-03-15T01:19:00.317Z,3.00
2023-03-15T01:21:29.128Z,1.60
2023-03-15T01:23:57.363Z,1.10
2023-03-15T01:26:27.118Z,4.30
2023-03-15T01:28:55.586Z,1.10
2023-03-15T01:31:30.388Z,1.10
2023-03-15T01:34:01.368Z,2.10
2023-03-15T01:36:32.317Z,4.80
2023-03-15T01:39:01.692Z,2.20
2023-03-15T01:41:29.428Z,2.60
2023-03-15T01:43:57.773Z,1.50
2023-03-15T01:46:35.134Z,1.80
2023-03-15T01:49:22.260Z,4.40
2023-03-15T01:52:02.785Z,3.90
2023-03-15T01:54:41.252Z,2.30
2023-03-15T01:57:14.599Z,2.10
2023-03-15T02:00:04.373Z,0.90
2023-03-15T02:02:32.434Z,4.00
2023-03-15T02:05:10.150Z,2.10
2023-03-15T02:07:49.880Z,2.80
2023-03-15T02:10:45.382Z,1.10
2023-03-15T02:13:22.831Z,2.90
2023-03-15T02:15:53.568Z,1.10
2023-03-15T02:18:22.019Z,1.90
2023-03-15T02:21:16.497Z,1.30
2023-03-15T02:23:52.985Z,4.80
2023-03-15T02:26:34.641Z,1.60
2023-03-15T02:29:03.007Z,2.20
2023-03-15T02:31:38.603Z,1.00
2023-03-15T02:34:09.396Z,0.90
2023-03-15T02:36:37.720Z,3.00
2023-03-15T02:39:18.957Z,1.80
2023-03-15T02:41:58.975Z,1.30
2023-03-15T02:44:36.495Z,1.00
2023-03-15T02:47:32.833Z,2.60
2023-03-15T02:50:03.180Z,1.70
2023-03-15T02:52:33.360Z,0.60
2023-03-15T02:55:02.379Z,2.10
2023-03-15T02:57:31.170Z,1.30
2023-03-15T03:00:00.558Z,1.20
2023-03-15T03:02:29.311Z,0.80
2023-03-15T03:04:58.975Z,0.90
2023-03-15T03:07:26.845Z,0.60
2023-03-15T03:09:56.152Z,0.70
2023-03-15T03:12:23.851Z,1.00
2023-03-15T03:14:51.683Z,2.30
2023-03-15T03:17:19.425Z,1.50
2023-03-15T03:19:47.249Z,2.30
2023-03-15T03:22:16.005Z,0.70
2023-03-15T03:24:46.005Z,2.70
2023-03-15T03:27:16.627Z,1.40
2023-03-15T03:29:45.165Z,1.20
2023-03-15T03:32:14.076Z,0.70
2023-03-15T03:34:48.938Z,2.40
2023-03-15T03:37:21.019Z,1.20
2023-03-15T03:39:49.013Z,1.00
2023-03-15T03:42:17.264Z,0.80
2023-03-15T03:44:45.395Z,0.70
2023-03-15T03:47:14.553Z,1.80
2023-03-15T03:49:43.445Z,0.90
2023-03-15T03:52:11.699Z,0.70
2023-03-15T03:54:39.433Z,3.00
2023-03-15T03:57:07.903Z,1.10
2023-03-15T03:59:36.836Z,4.90
2023-03-15T04:02:05.056Z,1.20
2023-03-15T04:04:44.082Z,1.50
2023-03-15T04:07:17.525Z,1.30
2023-03-15T04:09:45.588Z,0.90
2023-03-15T04:12:13.589Z,3.70
2023-03-15T04:14:41.414Z,2.00
2023-03-15T04:17:09.978Z,2.00
2023-03-15T04:19:38.112Z,1.00
2023-03-15T04:22:07.014Z,1.60
2023-03-15T04:24:35.859Z,2.60
2023-03-15T04:27:06.218Z,1.60
2023-03-15T04:29:34.004Z,2.50
2023-03-15T04:32:02.526Z,1.30
2023-03-15T04:34:31.367Z,1.00
2023-03-15T04:36:59.119Z,2.20
2023-03-15T04:39:27.249Z,1.50
2023-03-15T04:41:55.180Z,1.70
2023-03-15T04:44:26.415Z,1.70
2023-03-15T04:46:56.673Z,1.80
2023-03-15T04:49:26.767Z,3.80
2023-03-15T04:51:54.484Z,0.70
2023-03-15T04:54:23.446Z,0.80
2023-03-15T04:56:51.580Z,1.90
2023-03-15T04:59:19.366Z,1.00
2023-03-15T05:01:47.448Z,0.90
2023-03-15T05:04:16.534Z,1.10
2023-03-15T05:06:44.618Z,0.70
2023-03-15T05:09:19.439Z,0.50
2023-03-15T05:11:47.424Z,0.80
2023-03-15T05:14:15.885Z,0.70
2023-03-15T05:16:47.281Z,1.00
2023-03-15T05:19:16.017Z,0.80
2023-03-15T05:21:43.999Z,1.50
2023-03-15T05:24:12.087Z,2.60
2023-03-15T05:26:39.855Z,1.30
2023-03-15T05:29:07.570Z,2.10
2023-03-15T05:31:38.722Z,0.80
2023-03-15T05:34:08.402Z,1.60
2023-03-15T05:36:36.461Z,0.70
2023-03-15T05:39:05.911Z,1.80
2023-03-15T05:41:34.053Z,0.80
2023-03-15T05:44:01.760Z,1.30
2023-03-15T05:46:29.764Z,1.00
2023-03-15T05:49:00.417Z,4.40
2023-03-15T05:51:30.805Z,3.90
2023-03-15T05:53:59.926Z,1.20
2023-03-15T05:56:28.094Z,1.80
2023-03-15T05:58:56.060Z,0.80
2023-03-15T06:01:24.026Z,1.10
2023-03-15T06:03:54.460Z,2.10
2023-03-15T06:06:24.649Z,2.00
2023-03-15T06:08:57.324Z,1.00
2023-03-15T06:11:27.493Z,2.40
2023-03-15T06:13:55.350Z,1.40
2023-03-15T06:16:26.082Z,2.60
2023-03-15T06:18:54.250Z,1.10
2023-03-15T06:21:22.793Z,3.30
2023-03-15T06:23:50.947Z,3.10
2023-03-15T06:26:19.605Z,1.90
2023-03-15T06:28:48.026Z,0.80
2023-03-15T06:31:16.011Z,1.70
2023-03-15T06:33:43.948Z,1.10
2023-03-15T06:36:12.177Z,2.10
2023-03-15T06:38:39.950Z,0.90
2023-03-15T06:41:08.759Z,1.00
2023-03-15T06:43:37.003Z,0.70
2023-03-15T06:46:05.061Z,0.70
2023-03-15T06:48:33.043Z,1.60
2023-03-15T06:51:04.193Z,0.80
2023-03-15T06:53:33.447Z,2.00
2023-03-15T06:56:01.446Z,1.00
2023-03-15T06:58:29.154Z,3.10
2023-03-15T07:00:56.981Z,3.30
2023-03-15T07:03:25.069Z,0.60
2023-03-15T07:05:54.808Z,1.30
2023-03-15T07:08:25.349Z,1.20
2023-03-15T07:10:54.751Z,0.90
2023-03-15T07:13:24.726Z,1.50
2023-03-15T07:15:54.772Z,1.90
2023-03-15T07:18:24.160Z,6.00
2023-03-15T07:21:00.459Z,1.40
2023-03-15T07:23:31.737Z,1.00
2023-03-15T07:26:00.758Z,3.70
2023-03-15T07:28:29.299Z,3.00
2023-03-15T07:31:01.843Z,2.60
2023-03-15T07:33:33.237Z,2.90
2023-03-15T07:36:05.585Z,4.10
2023-03-15T07:38:35.473Z,2.40
2023-03-15T07:41:08.476Z,3.20
2023-03-15T07:43:36.869Z,6.70
2023-03-15T07:46:09.223Z,3.80
2023-03-15T07:48:38.497Z,1.30
2023-03-15T07:51:08.413Z,2.00
2023-03-15T07:53:36.114Z,2.30
2023-03-15T07:56:08.694Z,1.60
2023-03-15T07:58:36.810Z,10.30
2023-03-15T08:01:06.039Z,2.90
2023-03-15T08:03:34.234Z,2.20
2023-03-15T08:06:02.114Z,3.40
2023-03-15T08:08:32.713Z,3.50
2023-03-15T08:11:01.084Z,0.70
2023-03-15T08:13:30.442Z,3.50
2023-03-15T08:15:59.480Z,4.10
2023-03-15T08:18:29.163Z,2.90
2023-03-15T08:21:00.236Z,6.70
2023-03-15T08:23:28.079Z,4.40
2023-03-15T08:26:00.527Z,1.50
2023-03-15T08:28:28.541Z,4.70
2023-03-15T08:31:01.794Z,5.00
2023-03-15T08:33:30.461Z,2.50
2023-03-15T08:36:01.316Z,7.90
2023-03-15T08:38:38.229Z,4.70
2023-03-15T08:41:13.430Z,1.70
2023-03-15T08:43:43.589Z,5.80
2023-03-15T08:46:17.156Z,2.70
2023-03-15T08:48:52.394Z,2.90
2023-03-15T08:51:22.206Z,5.60
2023-03-15T08:53:50.043Z,2.70
2023-03-15T08:56:17.837Z,4.30
2023-03-15T08:58:46.988Z,3.90
2023-03-15T09:01:15.589Z,7.90
2023-03-15T09:03:43.575Z,2.50
2023-03-15T09:06:11.448Z,6.20
2023-03-15T09:08:42.468Z,4.60
2023-03-15T09:11:14.025Z,1.60
2023-03-15T09:13:42.641Z,4.30
2023-03-15T09:16:13.545Z,6.90
2023-03-15T09:18:44.443Z,5.60
2023-03-15T09:21:16.218Z,7.40
2023-03-15T09:23:43.965Z,1.70
2023-03-15T09:26:12.362Z,4.80
2023-03-15T09:28:40.664Z,10.60
2023-03-15T09:31:08.891Z,5.90
2023-03-15T09:33:39.053Z,1.10
2023-03-15T09:36:07.967Z,5.60
2023-03-15T09:38:44.910Z,4.00
2023-03-15T09:41:43.969Z,2.50
2023-03-15T09:44:34.527Z,4.50
2023-03-15T09:47:28.957Z,1.30
2023-03-15T09:50:40.250Z,3.90
2023-03-15T09:53:22.126Z,3.00
2023-03-15T09:55:51.898Z,0.80
2023-03-15T09:58:32.896Z,1.70
2023-03-15T10:01:13.099Z,2.40
2023-03-15T10:03:50.101Z,3.10
2023-03-15T10:06:37.894Z,5.90
2023-03-15T10:09:22.290Z,2.10
2023-03-15T10:12:13.962Z,2.50
2023-03-15T10:15:35.227Z,2.40
2023-03-15T10:19:04.948Z,1.90
2023-03-15T10:22:13.155Z,1.80
2023-03-15T10:25:13.401Z,3.00
2023-03-15T10:28:27.751Z,5.30
2023-03-15T10:31:08.210Z,5.20
2023-03-15T10:33:39.843Z,2.10
2023-03-15T10:36:24.473Z,2.40
2023-03-15T10:38:53.696Z,1.40
2023-03-15T10:41:41.630Z,3.80
2023-03-15T10:44:23.736Z,1.40
2023-03-15T10:49:59.713Z,0.70
2023-03-15T10:52:35.463Z,0.90
2023-03-15T10:55:58.419Z,1.60
2023-03-15T10:58:33.164Z,2.20
2023-03-15T11:01:09.857Z,0.60
2023-03-15T11:03:41.291Z,1.30
2023-03-15T11:06:25.916Z,0.90
2023-03-15T11:08:54.377Z,1.00
2023-03-15T11:11:22.560Z,0.60
2023-03-15T11:14:03.249Z,0.40
2023-03-15T11:16:39.158Z,0.30
2023-03-15T11:19:18.007Z,2.20
2023-03-15T11:21:51.289Z,1.30
2023-03-15T11:24:33.336Z,0.50
2023-03-15T11:27:09.784Z,0.60
2023-03-15T11:29:42.733Z,0.90
2023-03-15T11:32:22.243Z,0.50
2023-03-15T11:35:06.316Z,1.20
2023-03-15T11:37:49.436Z,1.90
2023-03-15T11:40:41.340Z,1.30
2023-03-15T11:43:28.778Z,0.70
2023-03-15T11:46:04.673Z,1.20
2023-03-15T11:48:48.580Z,1.30
2023-03-15T11:54:08.193Z,0.60
2023-03-15T11:57:03.448Z,1.40
2023-03-15T11:59:37.299Z,1.00
2023-03-15T12:02:11.466Z,0.40
2023-03-15T12:04:50.345Z,0.60
2023-03-15T12:07:24.040Z,0.80
2023-03-15T12:09:58.794Z,2.50
2023-03-15T12:12:27.144Z,0.40
2023-03-15T12:15:19.857Z,0.40
2023-03-15T12:18:08.212Z,1.20
2023-03-15T12:20:40.456Z,3.00
2023-03-15T12:23:17.804Z,1.10
2023-03-15T12:26:03.692Z,0.50
2023-03-15T12:28:52.563Z,0.50
2023-03-15T12:31:22.476Z,2.00
2023-03-15T12:33:55.136Z,1.60
2023-03-15T12:36:39.538Z,1.60
2023-03-15T12:39:15.909Z,0.50
2023-03-15T12:41:48.286Z,1.30
2023-03-15T12:44:31.978Z,0.50
2023-03-15T12:47:02.143Z,0.50
2023-03-15T12:49:39.238Z,1.40
2023-03-15T12:52:16.283Z,0.70
2023-03-15T12:54:52.175Z,0.50
2023-03-15T12:57:30.079Z,0.90
2023-03-15T13:00:12.186Z,0.30
2023-03-15T13:03:04.355Z,0.60
2023-03-15T13:06:04.867Z,0.40
2023-03-15T13:09:06.781Z,0.40
2023-03-15T13:11:46.870Z,0.50
2023-03-15T13:14:41.753Z,2.30
2023-03-15T13:17:35.143Z,4.40
2023-03-15T13:20:18.343Z,2.50
2023-03-15T13:23:15.039Z,0.40
2023-03-15T13:25:58.407Z,2.20
2023-03-15T13:28:54.645Z,1.40
2023-03-15T13:31:29.993Z,0.70
2023-03-15T13:34:17.437Z,4.00
2023-03-15T13:39:24.657Z,0.80
2023-03-15T13:42:05.791Z,0.50
2023-03-15T13:44:34.224Z,0.60
2023-03-15T13:47:02.450Z,0.70
2023-03-15T13:49:35.806Z,1.00
2023-03-15T13:52:12.265Z,1.50
2023-03-15T13:54:44.114Z,1.20
2023-03-15T13:57:24.310Z,1.40
2023-03-15T14:00:10.942Z,0.80
2023-03-15T14:03:01.803Z,1.30
2023-03-15T14:05:45.075Z,0.90
2023-03-15T14:08:33.019Z,3.90
2023-03-15T14:11:15.242Z,1.90
2023-03-15T14:14:02.676Z,1.50
2023-03-15T14:17:01.065Z,0.90
2023-03-15T14:19:38.110Z,2.30
2023-03-15T14:22:19.197Z,1.80
2023-03-15T14:24:52.269Z,0.90
2023-03-15T14:27:27.346Z,1.70
2023-03-15T14:29:59.845Z,1.50
2023-03-15T14:32:38.536Z,1.60
2023-03-15T14:35:31.616Z,0.50
2023-03-15T14:38:14.473Z,1.30
2023-03-15T14:40:42.687Z,1.40
2023-03-15T14:43:11.191Z,1.20
2023-03-15T14:45:43.846Z,1.10
2023-03-15T14:48:28.823Z,1.20
2023-03-15T14:50:57.889Z,1.00
2023-03-15T14:53:34.274Z,0.40
2023-03-15T14:56:04.270Z,1.70
2023-03-15T14:58:32.652Z,1.70
2023-03-15T15:01:04.200Z,1.80
2023-03-15T15:03:46.427Z,0.90
2023-03-15T15:06:16.575Z,0.30
2023-03-15T15:08:47.894Z,1.00
2023-03-15T15:11:16.413Z,1.20
2023-03-15T15:13:44.289Z,1.10
2023-03-15T15:16:13.616Z,2.90
2023-03-15T15:18:48.465Z,3.10
2023-03-15T15:21:34.014Z,2.10
2023-03-15T15:24:07.045Z,2.00
2023-03-15T15:26:36.131Z,1.30
2023-03-15T15:29:06.064Z,1.20
2023-03-15T15:31:35.553Z,2.90
2023-03-15T15:34:03.940Z,1.40
2023-03-15T15:36:43.626Z,1.00
2023-03-15T15:39:28.510Z,1.10
2023-03-15T15:41:57.234Z,1.80
2023-03-15T15:44:26.101Z,0.90
2023-03-15T15:46:57.878Z,1.60
2023-03-15T15:49:25.919Z,2.50
2023-03-15T15:51:57.440Z,1.30
2023-03-15T15:54:31.563Z,0.80
2023-03-15T15:57:14.798Z,2.70
2023-03-15T15:59:44.907Z,1.40
2023-03-15T16:02:18.236Z,2.20
2023-03-15T16:04:46.484Z,1.30
2023-03-15T16:07:18.141Z,1.60
2023-03-15T16:09:49.226Z,3.80
2023-03-15T16:12:20.093Z,1.30
2023-03-15T16:14:50.876Z,2.00
2023-03-15T16:17:25.334Z,2.50
2023-03-15T16:19:55.185Z,1.90
2023-03-15T16:22:24.437Z,1.50
2023-03-15T16:24:57.301Z,0.70
2023-03-15T16:27:30.286Z,1.90
2023-03-15T16:30:00.258Z,1.40
2023-03-15T16:32:43.082Z,2.10
2023-03-15T16:35:17.248Z,0.80
2023-03-15T16:37:47.257Z,0.90
2023-03-15T16:40:28.246Z,1.30
2023-03-15T16:42:58.797Z,1.60
2023-03-15T16:45:28.266Z,2.30
2023-03-15T16:47:57.771Z,1.00
2023-03-15T16:50:28.299Z,1.60
2023-03-15T16:53:01.361Z,1.80
2023-03-15T16:55:36.682Z,1.60
2023-03-15T16:58:19.935Z,4.00
2023-03-15T17:00:48.456Z,0.60
2023-03-15T17:03:17.627Z,3.30
2023-03-15T17:05:48.217Z,2.50
2023-03-15T17:08:21.188Z,4.60
2023-03-15T17:10:50.298Z,11.00
2023-03-15T17:16:15.327Z,7.10
2023-03-15T17:18:45.016Z,5.30
2023-03-15T17:21:17.349Z,3.30
2023-03-15T17:23:49.556Z,4.60
2023-03-15T17:26:26.790Z,7.30
2023-03-15T17:28:55.714Z,0.90
2023-03-15T17:31:25.247Z,2.90
2023-03-15T17:33:55.884Z,3.80
2023-03-15T17:36:34.593Z,2.30
2023-03-15T17:39:04.076Z,1.00
2023-03-15T17:41:36.990Z,1.50
2023-03-15T17:44:06.131Z,2.50
2023-03-15T17:46:34.443Z,2.70
2023-03-15T17:49:06.444Z,1.90
2023-03-15T17:51:38.628Z,4.40
2023-03-15T17:54:17.042Z,8.10
2023-03-15T17:56:45.216Z,22.80
2023-03-15T17:59:13.872Z,9.00
2023-03-15T18:01:48.780Z,10.20
2023-03-15T18:04:21.264Z,11.10
2023-03-15T18:06:49.497Z,13.10
2023-03-15T18:09:18.097Z,10.60
2023-03-15T18:11:48.260Z,12.20
2023-03-15T18:14:20.295Z,12.10
2023-03-15T18:16:48.548Z,12.20
2023-03-15T18:19:16.355Z,16.90
2023-03-15T18:21:44.231Z,14.60
2023-03-15T18:24:13.084Z,10.50
2023-03-15T18:26:42.180Z,5.40
2023-03-15T18:29:10.496Z,3.50
2023-03-15T18:31:39.415Z,5.60
2023-03-15T18:34:07.633Z,4.40
2023-03-15T18:36:36.342Z,7.10
2023-03-15T18:39:06.637Z,3.50
2023-03-15T18:41:35.203Z,6.60
2023-03-15T18:44:09.137Z,7.20
2023-03-15T18:46:37.214Z,6.40
2023-03-15T18:49:05.722Z,3.10
2023-03-15T18:51:34.494Z,4.50
2023-03-15T18:54:05.245Z,6.70
2023-03-15T18:56:34.810Z,9.40
2023-03-15T18:59:06.502Z,7.20
2023-03-15T19:01:34.868Z,7.30
2023-03-15T19:04:08.427Z,9.90
2023-03-15T19:06:37.763Z,10.80
2023-03-15T19:09:06.649Z,9.50
2023-03-15T19:11:40.703Z,14.20
2023-03-15T19:14:10.824Z,11.30
2023-03-15T19:16:39.458Z,22.40
2023-03-15T19:19:09.579Z,10.50
2023-03-15T19:21:42.672Z,5.90
2023-03-15T19:24:12.821Z,7.70
2023-03-15T19:26:41.982Z,10.00
2023-03-15T19:29:09.923Z,10.60
2023-03-15T19:31:41.712Z,8.90
2023-03-15T19:34:10.982Z,5.10
2023-03-15T19:36:40.277Z,8.80
2023-03-15T19:39:11.379Z,6.60
2023-03-15T19:41:48.743Z,10.20
2023-03-15T19:44:20.847Z,11.50
2023-03-15T19:46:54.875Z,9.80
2023-03-15T19:49:24.860Z,6.80
2023-03-15T19:51:53.207Z,12.70
2023-03-15T19:54:20.904Z,9.60
2023-03-15T19:56:50.011Z,14.10
2023-03-15T19:59:18.163Z,12.00
2023-03-15T20:01:47.153Z,12.10
2023-03-15T20:04:17.827Z,15.60
2023-03-15T20:06:46.005Z,12.60
2023-03-15T20:09:15.319Z,9.00
2023-03-15T20:11:44.816Z,17.80
2023-03-15T20:14:13.739Z,17.00
2023-03-15T20:16:42.828Z,13.00
2023-03-15T20:19:11.014Z,13.50
2023-03-15T20:21:43.983Z,9.20
2023-03-15T20:24:13.818Z,12.10
2023-03-15T20:26:42.902Z,6.90
2023-03-15T20:29:11.188Z,15.40
2023-03-15T20:31:39.807Z,4.80
2023-03-15T20:34:09.275Z,15.30
2023-03-15T20:36:37.205Z,14.30
2023-03-15T20:39:07.264Z,12.00
2023-03-15T20:41:39.196Z,17.50
2023-03-15T20:44:08.880Z,18.10
2023-03-15T20:46:39.921Z,12.20
2023-03-15T20:49:10.052Z,10.70
2023-03-15T20:51:38.697Z,18.10
2023-03-15T20:54:07.320Z,20.90
2023-03-15T20:56:37.693Z,17.30
2023-03-15T20:59:07.496Z,18.30
2023-03-15T21:01:36.599Z,13.60
2023-03-15T21:04:05.386Z,11.20
2023-03-15T21:06:33.805Z,10.90
2023-03-15T21:09:02.954Z,10.50
2023-03-15T21:11:33.393Z,15.90
2023-03-15T21:14:01.794Z,10.20
2023-03-15T21:16:30.169Z,10.50
2023-03-15T21:18:59.623Z,12.30
2023-03-15T21:21:29.874Z,10.90
2023-03-15T21:23:59.984Z,11.00
2023-03-15T21:26:28.385Z,9.80
2023-03-15T21:28:59.187Z,12.40
2023-03-15T21:31:27.295Z,13.70
2023-03-15T21:33:55.202Z,10.50
2023-03-15T21:36:24.037Z,12.90
2023-03-15T21:38:52.168Z,13.50
2023-03-15T21:41:20.376Z,17.80
2023-03-15T21:43:48.700Z,16.90
2023-03-15T21:46:17.619Z,11.20
2023-03-15T21:48:45.781Z,8.30
2023-03-15T21:51:17.126Z,11.10
2023-03-15T21:53:47.108Z,12.30
2023-03-15T21:56:15.809Z,21.10
2023-03-15T21:58:43.951Z,14.90
2023-03-15T22:01:15.338Z,14.60
2023-03-15T22:03:44.440Z,5.00
2023-03-15T22:06:15.207Z,8.90
2023-03-15T22:08:43.404Z,13.60
2023-03-15T22:11:11.773Z,13.30
2023-03-15T22:13:41.943Z,8.00
2023-03-15T22:16:12.266Z,3.00
2023-03-15T22:18:42.861Z,10.40
2023-03-15T22:21:18.472Z,13.90
2023-03-15T22:23:47.460Z,8.00
2023-03-15T22:26:15.237Z,11.90
2023-03-15T22:28:42.891Z,7.20
2023-03-15T22:31:16.655Z,8.10
2023-03-15T22:33:45.199Z,9.40
2023-03-15T22:36:17.996Z,11.10
2023-03-15T22:38:50.431Z,12.10
2023-03-15T22:41:19.740Z,13.10
2023-03-15T22:43:47.615Z,18.90
2023-03-15T22:46:16.538Z,19.80
2023-03-15T22:48:46.238Z,17.20
2023-03-15T22:51:17.081Z,20.50
2023-03-15T22:53:47.578Z,21.20
2023-03-15T22:56:17.731Z,12.50
2023-03-15T22:58:48.024Z,10.30
2023-03-15T23:01:18.723Z,12.30
2023-03-15T23:03:47.283Z,8.80
2023-03-15T23:06:16.652Z,7.80
2023-03-15T23:08:46.741Z,6.30
2023-03-15T23:11:14.837Z,4.10
2023-03-15T23:13:48.644Z,7.90
2023-03-15T23:16:17.896Z,1.80
2023-03-15T23:18:46.321Z,2.80
2023-03-15T23:21:17.129Z,8.30
2023-03-15T23:23:49.564Z,7.30
2023-03-15T23:26:20.261Z,3.00
2023-03-15T23:28:50.168Z,7.10
2023-03-15T23:31:18.585Z,7.00
2023-03-15T23:33:49.365Z,5.10
2023-03-15T23:36:18.206Z,3.10
2023-03-15T23:38:45.993Z,7.70
2023-03-15T23:41:16.956Z,2.70
2023-03-15T23:43:45.083Z,5.30
2023-03-15T23:46:19.091Z,2.70
2023-03-15T23:48:47.510Z,2.90
2023-03-15T23:51:17.618Z,6.60
2023-03-15T23:53:47.483Z,2.70
2023-03-15T23:56:15.970Z,7.10
2023-03-15T23:58:47.253Z,4.30
